Time;durP1;ratioP1;P1;durP2;ratioP2;P2;SDS_P1;SDS_P2;PMS_P1;PMS_P2;Temp;Humidity;BMP_temperature;BMP_pressure;BME280_temperature;BME280_humidity;BME280_pressure;Samples;Min_cycle;Max_cycle;Signal;HPM_P1;HPM_P2
2022/12/09 00:01:31;;;;;;;23.47;15.47;;;;;;;2.35;100.00;98228.34;5075029;28;20187;-80
2022/12/09 00:04:00;;;;;;;22.70;15.17;;;;;;;2.37;100.00;98234.34;5112652;28;20211;-79
2022/12/09 00:06:32;;;;;;;21.23;15.10;;;;;;;2.43;100.00;98226.22;5102157;28;20198;-79
2022/12/09 00:09:00;;;;;;;22.90;14.53;;;;;;;2.53;100.00;98228.34;5114209;27;20346;-78
2022/12/09 00:11:29;;;;;;;25.37;15.33;;;;;;;2.41;100.00;98221.06;5113868;27;20650;-81
2022/12/09 00:14:00;;;;;;;23.37;14.87;;;;;;;2.41;100.00;98220.22;5113166;27;20286;-78
2022/12/09 00:16:28;;;;;;;23.17;15.03;;;;;;;2.39;100.00;98212.44;5116482;27;20209;-77
2022/12/09 00:18:57;;;;;;;22.50;14.67;;;;;;;2.45;100.00;98221.78;5105183;28;20279;-78
2022/12/09 00:21:28;;;;;;;23.23;14.83;;;;;;;2.38;100.00;98215.13;5107855;28;20244;-78
2022/12/09 00:24:01;;;;;;;23.90;14.87;;;;;;;2.41;100.00;98213.22;5113309;28;20300;-78
2022/12/09 00:26:30;;;;;;;24.57;14.43;;;;;;;2.43;100.00;98221.00;5109407;28;20230;-80
2022/12/09 00:28:59;;;;;;;20.30;14.13;;;;;;;2.47;100.00;98217.31;5108158;28;20199;-80
2022/12/09 00:31:29;;;;;;;18.20;12.47;;;;;;;2.48;100.00;98219.00;5024621;28;20232;-80
2022/12/09 00:34:01;;;;;;;19.70;13.13;;;;;;;2.43;100.00;98216.63;5029090;28;20276;-78
2022/12/09 00:36:30;;;;;;;18.97;13.30;;;;;;;2.35;100.00;98213.50;5029786;28;20656;-79
2022/12/09 00:39:01;;;;;;;21.00;13.20;;;;;;;2.41;100.00;98221.06;5027069;28;20216;-78
2022/12/09 00:41:30;;;;;;;17.93;12.30;;;;;;;2.46;100.00;98226.06;4975511;28;20214;-78
2022/12/09 00:44:00;;;;;;;18.87;13.27;;;;;;;2.41;100.00;98225.44;5027704;28;20241;-80
2022/12/09 00:46:29;;;;;;;20.73;13.83;;;;;;;2.49;100.00;98223.31;5030969;28;20186;-78
2022/12/09 00:48:58;;;;;;;18.67;13.50;;;;;;;2.47;100.00;98226.00;5042339;28;20211;-78
2022/12/09 00:51:27;;;;;;;20.17;13.87;;;;;;;2.50;100.00;98217.16;5111615;28;20198;-78
2022/12/09 00:53:55;;;;;;;19.17;13.37;;;;;;;2.57;100.00;98216.81;5112282;28;20264;-80
2022/12/09 00:56:28;;;;;;;19.43;12.77;;;;;;;2.50;100.00;98218.00;5115200;27;20191;-78
2022/12/09 00:58:57;;;;;;;18.67;12.20;;;;;;;2.48;100.00;98208.56;5111492;28;20203;-78
2022/12/09 01:01:26;;;;;;;17.87;12.20;;;;;;;2.47;100.00;98209.47;5111398;28;20202;-79
2022/12/09 01:03:55;;;;;;;17.47;12.40;;;;;;;2.38;100.00;98217.75;5112967;28;20298;-80
2022/12/09 01:06:27;;;;;;;22.50;12.80;;;;;;;2.41;100.00;98205.38;5112413;28;20194;-78
2022/12/09 01:08:55;;;;;;;20.13;13.07;;;;;;;2.45;100.00;98211.31;5113109;28;20233;-78
2022/12/09 01:11:27;;;;;;;20.00;11.97;;;;;;;2.45;100.00;98213.94;5111316;27;20207;-78
2022/12/09 01:13:59;;;;;;;18.07;12.43;;;;;;;2.48;100.00;98219.00;5111275;28;20206;-78
2022/12/09 01:16:30;;;;;;;17.90;12.10;;;;;;;2.47;100.00;98207.72;5070629;28;20216;-77
2022/12/09 01:19:02;;;;;;;18.23;12.70;;;;;;;2.48;100.00;98214.63;5070155;28;20204;-78
2022/12/09 01:21:33;;;;;;;19.33;11.80;;;;;;;2.56;100.00;98217.75;5060565;28;20238;-78
2022/12/09 01:24:06;;;;;;;20.30;13.20;;;;;;;2.53;100.00;98202.22;5062122;28;20212;-78
2022/12/09 01:26:36;;;;;;;21.60;12.57;;;;;;;2.48;100.00;98211.16;5070448;28;20229;-78
2022/12/09 01:29:05;;;;;;;21.30;12.90;;;;;;;2.46;100.00;98210.41;5064788;28;20224;-78
2022/12/09 01:31:33;;;;;;;23.63;13.30;;;;;;;2.42;100.00;98207.09;5065542;28;20238;-78
2022/12/09 01:34:02;;;;;;;19.80;13.50;;;;;;;2.41;100.00;98215.81;5079180;28;20202;-78
2022/12/09 01:36:31;;;;;;;22.47;14.13;;;;;;;2.35;100.00;98208.28;5109970;28;20187;-78
2022/12/09 01:39:00;;;;;;;20.23;13.33;;;;;;;2.52;100.00;98208.34;5118274;27;20195;-78
2022/12/09 01:41:29;;;;;;;22.23;13.83;;;;;;;2.42;100.00;98198.41;5114865;28;20199;-78
2022/12/09 01:44:18;;;;;;;19.87;13.40;;;;;;;2.43;100.00;98205.31;5115902;28;20302;-78
2022/12/09 01:46:54;;;;;;;23.03;14.30;;;;;;;2.42;100.00;98194.03;5120765;28;20187;-78
2022/12/09 01:49:26;;;;;;;22.07;13.90;;;;;;;2.48;100.00;98196.34;5115880;28;20270;-78
2022/12/09 01:52:03;;;;;;;25.60;15.37;;;;;;;2.41;100.00;98197.53;5114528;28;20199;-78
2022/12/09 01:54:32;;;;;;;27.90;16.37;;;;;;;2.39;100.00;98196.75;5112968;28;20190;-78
2022/12/09 01:57:02;;;;;;;27.43;15.43;;;;;;;2.32;100.00;98192.75;5033875;28;20256;-78
2022/12/09 01:59:33;;;;;;;28.27;16.50;;;;;;;2.34;100.00;98198.75;5030161;28;20190;-80
2022/12/09 02:02:05;;;;;;;33.63;18.93;;;;;;;2.49;100.00;98203.25;5030425;28;20205;-78
2022/12/09 02:04:39;;;;;;;30.60;17.67;;;;;;;2.47;100.00;98197.25;5033901;28;20241;-80
2022/12/09 02:07:10;;;;;;;32.03;17.57;;;;;;;2.44;100.00;98202.63;5025955;28;20244;-78
2022/12/09 02:09:40;;;;;;;32.30;18.23;;;;;;;2.49;100.00;98194.56;5031528;28;20202;-78
2022/12/09 02:12:12;;;;;;;35.73;20.13;;;;;;;2.67;100.00;98198.09;5027156;28;20284;-78
2022/12/09 02:14:52;;;;;;;36.37;18.90;;;;;;;2.74;100.00;98197.72;5003428;28;20289;-78
2022/12/09 02:17:31;;;;;;;31.20;18.03;;;;;;;2.73;100.00;98188.19;5073483;28;20199;-80
2022/12/09 02:20:10;;;;;;;36.53;20.47;;;;;;;2.64;100.00;98195.63;5066152;28;20245;-80
2022/12/09 02:22:43;;;;;;;32.63;18.00;;;;;;;2.53;100.00;98190.91;5069003;28;20188;-80
2022/12/09 02:25:21;;;;;;;30.00;17.07;;;;;;;2.48;100.00;98187.66;5071517;28;20350;-80
2022/12/09 02:27:59;;;;;;;26.70;15.00;;;;;;;2.52;100.00;98184.00;5071142;28;20216;-80
2022/12/09 02:30:36;;;;;;;25.57;15.03;;;;;;;2.50;100.00;98188.41;5070889;28;20226;-80
2022/12/09 02:33:35;;;;;;;21.93;13.90;;;;;;;2.48;100.00;98185.88;5095848;28;20199;-80
2022/12/09 02:36:11;;;;;;;25.77;14.90;;;;;;;2.49;100.00;98184.13;5107273;28;20195;-80
2022/12/09 02:38:42;;;;;;;23.47;14.90;;;;;;;2.47;100.00;98188.56;5113864;28;20244;-80
2022/12/09 02:41:16;;;;;;;22.20;14.50;;;;;;;2.46;100.00;98184.28;5118407;27;20198;-80
2022/12/09 02:43:51;;;;;;;23.40;14.63;;;;;;;2.48;100.00;98182.44;5117578;27;20301;-80
2022/12/09 02:46:22;;;;;;;23.13;14.53;;;;;;;2.45;100.00;98182.56;5112360;28;20676;-81
2022/12/09 02:48:54;;;;;;;23.30;14.40;;;;;;;2.53;100.00;98183.06;5111184;28;20207;-80
2022/12/09 02:51:27;;;;;;;25.70;15.27;;;;;;;2.44;100.00;98181.75;5114862;28;20195;-80
2022/12/09 02:54:02;;;;;;;22.30;14.00;;;;;;;2.47;100.00;98178.97;5110972;28;20217;-80
2022/12/09 02:56:32;;;;;;;23.80;14.53;;;;;;;2.43;100.00;98168.75;5113655;28;20183;-80
2022/12/09 02:59:02;;;;;;;23.40;15.20;;;;;;;2.50;100.00;98170.13;5112832;28;20195;-80
2022/12/09 03:01:36;;;;;;;22.77;14.53;;;;;;;2.46;100.00;98164.22;5111667;28;20206;-80
2022/12/09 03:04:07;;;;;;;24.87;14.67;;;;;;;2.50;100.00;98163.13;5111787;28;20214;-81
2022/12/09 03:06:46;;;;;;;23.63;15.30;;;;;;;2.47;100.00;98167.66;5112291;28;20705;-81
2022/12/09 03:09:20;;;;;;;24.77;14.17;;;;;;;2.45;100.00;98164.28;5111935;28;20309;-80
2022/12/09 03:11:51;;;;;;;21.67;14.13;;;;;;;2.38;100.00;98166.34;5113089;28;20209;-80
2022/12/09 03:14:25;;;;;;;22.67;15.27;;;;;;;2.29;100.00;98158.94;5109679;28;20202;-80
2022/12/09 03:17:01;;;;;;;24.60;14.50;;;;;;;2.33;100.00;98152.66;5113214;28;20199;-80
2022/12/09 03:19:36;;;;;;;24.17;14.47;;;;;;;2.28;100.00;98152.00;5066393;28;20192;-80
2022/12/09 03:22:10;;;;;;;21.57;14.40;;;;;;;2.29;100.00;98144.09;5063762;28;20200;-80
2022/12/09 03:24:44;;;;;;;20.90;13.27;;;;;;;2.25;100.00;98146.94;5069857;28;20222;-80
2022/12/09 03:27:19;;;;;;;19.13;12.43;;;;;;;2.31;100.00;98141.41;5069868;28;20210;-80
2022/12/09 03:29:50;;;;;;;20.77;13.60;;;;;;;2.29;100.00;98135.41;5069823;28;20191;-80
2022/12/09 03:32:24;;;;;;;22.30;14.10;;;;;;;2.29;100.00;98131.03;5035500;28;20218;-80
2022/12/09 03:34:56;;;;;;;21.77;13.00;;;;;;;2.29;100.00;98130.19;5068161;28;20192;-80
2022/12/09 03:37:27;;;;;;;24.77;13.97;;;;;;;2.25;100.00;98126.03;5084728;28;20237;-78
2022/12/09 03:39:57;;;;;;;25.73;14.77;;;;;;;2.23;100.00;98120.91;5112019;28;20249;-78
2022/12/09 03:42:33;;;;;;;20.53;13.67;;;;;;;2.24;100.00;98125.19;5109452;28;20184;-78
2022/12/09 03:45:05;;;;;;;23.13;13.60;;;;;;;2.23;100.00;98128.72;5081099;28;20250;-80
2022/12/09 03:47:35;;;;;;;21.00;13.47;;;;;;;2.24;100.00;98124.34;5114827;28;20237;-80
2022/12/09 03:50:06;;;;;;;21.57;13.63;;;;;;;2.19;100.00;98135.00;5069543;28;20194;-80
2022/12/09 03:52:42;;;;;;;23.10;14.57;;;;;;;2.17;100.00;98129.00;5059178;28;20208;-78
2022/12/09 03:55:20;;;;;;;22.53;14.17;;;;;;;2.17;100.00;98125.56;5071893;28;20279;-78
2022/12/09 03:57:51;;;;;;;21.83;14.87;;;;;;;2.13;100.00;98130.09;5071199;28;20364;-79
2022/12/09 04:00:21;;;;;;;20.87;13.53;;;;;;;2.12;100.00;98123.13;5071562;28;20235;-79
2022/12/09 04:02:51;;;;;;;24.70;15.47;;;;;;;2.07;100.00;98125.13;5066725;28;20242;-79
2022/12/09 04:05:20;;;;;;;26.40;15.10;;;;;;;2.09;100.00;98130.28;5068330;28;20213;-79
2022/12/09 04:07:50;;;;;;;24.37;14.60;;;;;;;2.06;100.00;98128.66;5079782;28;20677;-78
2022/12/09 04:10:19;;;;;;;22.33;14.60;;;;;;;2.04;100.00;98130.50;5113968;28;20228;-79
2022/12/09 04:12:48;;;;;;;23.27;13.73;;;;;;;2.11;100.00;98131.03;5111453;28;20281;-78
2022/12/09 04:15:16;;;;;;;22.83;13.73;;;;;;;2.07;100.00;98129.50;5111651;27;20191;-79
2022/12/09 04:17:45;;;;;;;24.00;14.63;;;;;;;2.08;100.00;98131.19;5115340;27;20722;-79
2022/12/09 04:20:14;;;;;;;22.17;14.73;;;;;;;2.10;100.00;98124.97;5112872;27;20240;-78
2022/12/09 04:22:43;;;;;;;24.90;14.47;;;;;;;2.16;100.00;98124.72;5109980;28;20672;-78
2022/12/09 04:25:13;;;;;;;24.67;15.60;;;;;;;2.01;100.00;98123.63;5113576;27;20219;-78
2022/12/09 04:27:41;;;;;;;24.20;15.17;;;;;;;2.09;100.00;98125.06;5110322;28;20205;-78
2022/12/09 04:30:11;;;;;;;23.77;14.63;;;;;;;2.07;100.00;98126.91;5111535;28;20213;-79
2022/12/09 04:32:40;;;;;;;24.40;14.60;;;;;;;2.08;100.00;98124.22;5112821;28;20187;-78
2022/12/09 04:35:10;;;;;;;26.30;14.70;;;;;;;2.12;100.00;98124.91;5113836;28;20191;-78
2022/12/09 04:37:38;;;;;;;25.47;14.97;;;;;;;2.08;100.00;98123.38;5112316;28;20206;-78
2022/12/09 04:40:08;;;;;;;24.23;14.63;;;;;;;2.14;100.00;98121.31;5106347;28;20199;-78
2022/12/09 04:42:39;;;;;;;23.70;14.70;;;;;;;2.10;100.00;98121.53;5110551;28;20300;-78
2022/12/09 04:45:09;;;;;;;29.87;16.00;;;;;;;2.07;100.00;98127.75;5050673;28;20283;-80
2022/12/09 04:47:38;;;;;;;26.83;16.93;;;;;;;1.97;100.00;98123.88;5042396;28;20201;-78
2022/12/09 04:50:08;;;;;;;30.70;17.23;;;;;;;1.98;100.00;98123.78;5047709;28;20231;-78
2022/12/09 04:52:37;;;;;;;29.40;17.63;;;;;;;2.03;100.00;98122.72;5044689;28;20231;-78
2022/12/09 04:55:06;;;;;;;35.57;19.10;;;;;;;2.04;100.00;98119.22;5042467;28;20691;-78
2022/12/09 04:57:35;;;;;;;30.43;17.90;;;;;;;2.02;100.00;98121.88;5046688;28;20200;-78
2022/12/09 05:00:07;;;;;;;32.50;19.97;;;;;;;1.95;100.00;98118.72;5047107;28;20259;-77
2022/12/09 05:02:36;;;;;;;35.20;19.50;;;;;;;1.96;100.00;98123.03;5058628;28;20187;-78
2022/12/09 05:05:07;;;;;;;36.03;20.33;;;;;;;1.95;100.00;98120.47;5113391;28;20211;-78
2022/12/09 05:07:36;;;;;;;43.43;20.43;;;;;;;1.91;100.00;98116.31;5035649;28;20230;-78
2022/12/09 05:10:06;;;;;;;38.27;21.00;;;;;;;1.84;100.00;98117.53;5027879;28;20220;-78
2022/12/09 05:12:36;;;;;;;34.30;19.17;;;;;;;1.77;100.00;98131.75;5031466;28;20229;-78
2022/12/09 05:15:08;;;;;;;34.30;17.70;;;;;;;1.61;100.00;98129.81;5029961;28;20237;-78
2022/12/09 05:17:36;;;;;;;34.60;17.53;;;;;;;1.59;100.00;98121.22;5030142;28;20689;-78
2022/12/09 05:20:07;;;;;;;36.50;18.17;;;;;;;1.37;100.00;98128.31;5028022;28;20248;-78
2022/12/09 05:22:36;;;;;;;36.87;19.10;;;;;;;1.43;100.00;98128.03;5031821;28;20194;-78
2022/12/09 05:25:06;;;;;;;36.33;18.47;;;;;;;1.47;100.00;98128.75;5030436;28;20292;-79
2022/12/09 05:27:35;;;;;;;48.20;19.77;;;;;;;1.41;100.00;98128.09;5024894;28;20201;-78
2022/12/09 05:30:05;;;;;;;40.97;18.10;;;;;;;1.37;100.00;98123.09;4986407;28;20220;-78
2022/12/09 05:32:36;;;;;;;39.27;17.93;;;;;;;1.34;100.00;98116.22;5029434;28;20197;-78
2022/12/09 05:35:05;;;;;;;42.83;18.23;;;;;;;1.33;100.00;98119.75;5030478;28;20251;-78
2022/12/09 05:37:33;;;;;;;37.63;17.07;;;;;;;1.48;100.00;98120.84;5025377;28;20356;-79
2022/12/09 05:40:04;;;;;;;42.20;18.90;;;;;;;1.39;100.00;98110.81;5029773;28;20200;-78
2022/12/09 05:42:38;;;;;;;59.30;30.50;;;;;;;1.36;100.00;98118.78;5030120;28;20280;-78
2022/12/09 05:45:11;;;;;;;54.23;22.87;;;;;;;1.24;100.00;98112.31;5068923;28;20186;-81
2022/12/09 05:47:42;;;;;;;53.67;21.57;;;;;;;1.22;100.00;98116.78;5117662;27;20283;-78
2022/12/09 05:50:12;;;;;;;54.13;17.47;;;;;;;1.22;100.00;98108.94;5116554;28;20187;-78
2022/12/09 05:52:41;;;;;;;36.23;16.03;;;;;;;1.21;100.00;98114.22;5110379;28;20278;-78
2022/12/09 05:55:10;;;;;;;37.70;15.97;;;;;;;1.21;100.00;98109.00;5119084;27;20195;-78
2022/12/09 05:57:39;;;;;;;38.07;15.47;;;;;;;1.32;100.00;98101.56;5116670;28;20193;-78
2022/12/09 06:00:09;;;;;;;38.83;16.07;;;;;;;1.27;100.00;98096.56;5116456;28;20227;-78
2022/12/09 06:02:41;;;;;;;35.47;15.47;;;;;;;1.38;100.00;98101.31;5116465;27;20195;-78
2022/12/09 06:05:10;;;;;;;42.07;15.27;;;;;;;1.37;100.00;98100.47;5110164;28;20232;-78
2022/12/09 06:07:41;;;;;;;54.50;18.20;;;;;;;1.36;100.00;98104.00;5112995;28;20211;-78
2022/12/09 06:10:10;;;;;;;46.60;15.43;;;;;;;1.38;100.00;98088.28;5116114;28;20248;-78
2022/12/09 06:12:40;;;;;;;33.07;15.70;;;;;;;1.42;100.00;98100.25;5116325;27;20232;-78
2022/12/09 06:15:09;;;;;;;45.73;15.73;;;;;;;1.51;100.00;98093.78;5111994;28;20193;-78
2022/12/09 06:17:42;;;;;;;46.97;16.33;;;;;;;1.43;100.00;98086.28;5114062;28;20230;-79
2022/12/09 06:20:12;;;;;;;44.63;16.07;;;;;;;1.44;100.00;98086.22;5110253;28;20236;-78
2022/12/09 06:22:41;;;;;;;37.03;15.53;;;;;;;1.52;100.00;98085.88;5110979;28;20201;-78
2022/12/09 06:25:10;;;;;;;38.27;15.73;;;;;;;1.44;100.00;98094.03;5116061;28;20195;-78
2022/12/09 06:27:39;;;;;;;36.77;16.20;;;;;;;1.54;100.00;98084.03;5111812;28;20198;-78
2022/12/09 06:30:10;;;;;;;59.40;15.93;;;;;;;1.46;100.00;98088.78;5114570;28;20307;-78
2022/12/09 06:32:39;;;;;;;50.00;15.07;;;;;;;1.44;100.00;98086.22;5115848;27;20191;-78
2022/12/09 06:35:10;;;;;;;37.10;15.20;;;;;;;1.42;100.00;98084.59;5114911;28;20198;-78
2022/12/09 06:37:39;;;;;;;108.23;17.43;;;;;;;1.42;100.00;98093.25;5115439;27;20202;-78
2022/12/09 06:40:09;;;;;;;52.20;16.77;;;;;;;1.37;100.00;98087.41;5112296;28;20209;-78
2022/12/09 06:42:38;;;;;;;36.27;14.73;;;;;;;1.38;100.00;98091.72;5116244;28;20274;-79
2022/12/09 06:45:08;;;;;;;36.63;16.03;;;;;;;1.43;100.00;98086.28;5119499;27;20263;-78
2022/12/09 06:47:39;;;;;;;37.30;16.23;;;;;;;1.37;100.00;98081.34;5048742;28;20221;-78
2022/12/09 06:50:11;;;;;;;33.43;14.93;;;;;;;1.43;100.00;98088.91;5044732;28;20221;-78
2022/12/09 06:52:41;;;;;;;49.10;15.40;;;;;;;1.48;100.00;98081.72;4969449;28;20199;-78
2022/12/09 06:55:10;;;;;;;45.73;15.60;;;;;;;1.48;100.00;98078.28;4966975;28;20199;-78
2022/12/09 06:57:40;;;;;;;42.73;16.03;;;;;;;1.45;100.00;98087.09;4927303;28;20200;-78
2022/12/09 07:00:10;;;;;;;33.80;15.77;;;;;;;1.40;100.00;98084.66;4969666;28;20208;-78
2022/12/09 07:02:38;;;;;;;45.90;16.50;;;;;;;1.41;100.00;98085.50;4970109;28;20363;-78
2022/12/09 07:05:10;;;;;;;86.60;19.73;;;;;;;1.43;100.00;98092.34;4968410;28;20228;-78
2022/12/09 07:07:40;;;;;;;82.27;17.63;;;;;;;1.36;100.00;98090.94;4970292;28;20750;-78
2022/12/09 07:10:10;;;;;;;41.60;17.83;;;;;;;1.37;100.00;98094.41;4970704;28;20208;-78
2022/12/09 07:12:39;;;;;;;41.23;16.63;;;;;;;1.34;100.00;98086.69;4969711;28;20238;-78
2022/12/09 07:15:09;;;;;;;40.23;17.70;;;;;;;1.39;100.00;98085.59;4971312;28;20280;-78
2022/12/09 07:17:43;;;;;;;36.00;16.63;;;;;;;1.41;100.00;98090.72;5019166;28;20201;-78
2022/12/09 07:20:16;;;;;;;32.97;15.43;;;;;;;1.42;100.00;98092.41;5115053;27;20195;-78
2022/12/09 07:22:45;;;;;;;38.67;16.17;;;;;;;1.42;100.00;98090.66;5061656;28;20202;-78
2022/12/09 07:25:14;;;;;;;35.17;15.73;;;;;;;1.38;100.00;98090.88;5112787;28;20289;-78
2022/12/09 07:27:43;;;;;;;32.30;15.77;;;;;;;1.46;100.00;98090.53;5104125;28;20222;-78
2022/12/09 07:30:12;;;;;;;34.47;15.90;;;;;;;1.42;100.00;98092.41;5106061;28;20206;-78
2022/12/09 07:32:41;;;;;;;30.97;15.20;;;;;;;1.51;100.00;98093.78;5107108;28;20738;-78
2022/12/09 07:35:11;;;;;;;32.07;14.67;;;;;;;1.54;100.00;98101.47;5106284;28;20197;-78
2022/12/09 07:37:43;;;;;;;31.13;15.17;;;;;;;1.48;100.00;98088.72;5111393;28;20226;-78
2022/12/09 07:40:12;;;;;;;32.10;13.87;;;;;;;1.42;100.00;98097.63;5109025;28;20643;-78
2022/12/09 07:42:41;;;;;;;28.97;14.60;;;;;;;1.43;100.00;98088.91;5114575;28;20194;-78
2022/12/09 07:45:11;;;;;;;27.90;14.37;;;;;;;1.37;100.00;98099.63;5114753;28;20669;-77
2022/12/09 07:47:41;;;;;;;28.83;14.27;;;;;;;1.42;100.00;98100.25;5046985;28;20272;-78
2022/12/09 07:50:11;;;;;;;28.20;13.60;;;;;;;1.48;100.00;98102.59;5048489;28;20204;-78
2022/12/09 07:52:41;;;;;;;30.13;15.20;;;;;;;1.37;100.00;98104.84;4999054;28;20185;-78
2022/12/09 07:55:10;;;;;;;30.10;14.50;;;;;;;1.39;100.00;98095.19;5045384;28;20209;-78
2022/12/09 07:57:39;;;;;;;29.30;14.57;;;;;;;1.46;100.00;98098.38;5045760;28;20682;-78
2022/12/09 08:00:09;;;;;;;25.83;13.13;;;;;;;1.33;100.00;98091.06;5051676;28;20193;-78
2022/12/09 08:02:37;;;;;;;29.70;14.10;;;;;;;1.36;100.00;98095.31;5041050;28;20280;-78
2022/12/09 08:05:07;;;;;;;25.87;13.80;;;;;;;1.46;100.00;98094.00;5042222;28;20284;-78
2022/12/09 08:07:37;;;;;;;23.40;13.10;;;;;;;1.53;100.00;98095.41;5047224;28;20233;-78
2022/12/09 08:10:13;;;;;;;24.43;13.30;;;;;;;1.52;100.00;98082.41;5051686;28;20189;-79
2022/12/09 08:12:42;;;;;;;26.90;13.73;;;;;;;1.58;100.00;98085.63;5089886;28;20203;-79
2022/12/09 08:15:11;;;;;;;24.73;13.97;;;;;;;1.53;100.00;98087.56;5067469;28;20184;-78
2022/12/09 08:17:41;;;;;;;22.53;13.50;;;;;;;1.72;100.00;98093.66;5068923;28;20264;-79
2022/12/09 08:20:11;;;;;;;27.07;13.63;;;;;;;1.80;100.00;98098.53;5049118;28;20199;-78
2022/12/09 08:22:44;;;;;;;24.80;13.10;;;;;;;1.84;100.00;98075.75;5065611;28;20204;-79
2022/12/09 08:25:16;;;;;;;22.43;13.00;;;;;;;1.91;100.00;98090.19;5068893;28;20261;-79
2022/12/09 08:27:45;;;;;;;23.07;12.57;;;;;;;1.94;100.00;98084.84;5071294;28;20212;-79
2022/12/09 08:30:15;;;;;;;24.10;13.77;;;;;;;2.06;100.00;98083.44;5068237;28;20205;-79
2022/12/09 08:32:44;;;;;;;25.07;13.80;;;;;;;2.17;100.00;98083.75;5073925;28;20202;-79
2022/12/09 08:35:13;;;;;;;23.83;13.43;;;;;;;2.24;100.00;98079.94;5113495;27;20190;-79
2022/12/09 08:37:44;;;;;;;25.47;13.97;;;;;;;2.06;100.00;98080.81;5109485;28;20778;-79
2022/12/09 08:40:14;;;;;;;26.17;13.20;;;;;;;2.31;100.00;98086.53;5116120;27;20244;-79
2022/12/09 08:42:45;;;;;;;23.90;13.10;;;;;;;2.29;100.00;98083.16;5111730;28;20190;-79
2022/12/09 08:45:15;;;;;;;23.57;12.77;;;;;;;2.29;100.00;98081.41;5075254;28;20244;-79
2022/12/09 08:47:44;;;;;;;22.83;13.10;;;;;;;2.26;100.00;98080.72;5077451;28;20240;-78
2022/12/09 08:50:15;;;;;;;21.07;12.43;;;;;;;2.26;100.00;98076.34;5112794;28;20335;-79
2022/12/09 08:52:44;;;;;;;22.57;12.70;;;;;;;2.29;100.00;98068.34;5112227;28;20266;-78
2022/12/09 08:55:12;;;;;;;18.57;10.57;;;;;;;2.22;100.00;98069.56;5106732;28;20198;-78
2022/12/09 08:57:41;;;;;;;20.97;11.90;;;;;;;2.30;100.00;98058.72;5073541;28;20201;-78
2022/12/09 09:00:14;;;;;;;21.47;12.67;;;;;;;2.29;100.00;98057.88;5113931;28;20183;-78
2022/12/09 09:02:43;;;;;;;20.57;12.07;;;;;;;2.35;100.00;98055.91;5111626;28;20187;-79
2022/12/09 09:05:12;;;;;;;19.20;11.57;;;;;;;2.39;100.00;98058.28;5113545;28;20192;-79
2022/12/09 09:07:41;;;;;;;19.07;11.83;;;;;;;2.40;100.00;98046.91;5076610;28;20262;-79
2022/12/09 09:10:11;;;;;;;17.93;11.27;;;;;;;2.50;100.00;98045.53;5113019;28;20278;-79
2022/12/09 09:12:41;;;;;;;19.33;11.63;;;;;;;2.65;100.00;98057.03;5088864;28;20199;-79
2022/12/09 09:15:17;;;;;;;19.57;11.47;;;;;;;2.79;100.00;98062.38;5112239;28;20199;-79
2022/12/09 09:17:46;;;;;;;20.90;11.63;;;;;;;2.70;100.00;98056.78;5105239;28;20243;-79
2022/12/09 09:20:19;;;;;;;18.33;11.43;;;;;;;2.78;100.00;98058.09;5112953;28;20187;-79
2022/12/09 09:22:55;;;;;;;20.37;11.83;;;;;;;2.70;100.00;98048.94;5074497;28;20225;-78
2022/12/09 09:25:30;;;;;;;19.67;12.20;;;;;;;2.74;100.00;98053.94;5079657;28;20194;-78
2022/12/09 09:28:01;;;;;;;19.07;11.53;;;;;;;2.69;100.00;98055.09;5109556;28;20215;-79
2022/12/09 09:30:31;;;;;;;20.70;12.87;;;;;;;2.83;100.00;98052.63;5113590;27;20240;-79
2022/12/09 09:33:02;;;;;;;19.90;11.70;;;;;;;2.89;100.00;98052.31;5112260;28;20194;-79
2022/12/09 09:35:31;;;;;;;19.43;11.80;;;;;;;3.03;100.00;98046.38;5109845;28;20195;-79
2022/12/09 09:38:00;;;;;;;18.53;11.57;;;;;;;3.08;100.00;98047.81;5110524;28;20195;-79
2022/12/09 09:40:29;;;;;;;18.97;11.37;;;;;;;3.21;100.00;98047.22;5131187;28;20709;-79
2022/12/09 09:42:58;;;;;;;18.53;11.53;;;;;;;3.30;100.00;98033.66;5009601;28;20195;-79
2022/12/09 09:48:19;;;;;;;18.67;11.27;;;;;;;3.51;100.00;98034.28;4969781;28;20219;-79
2022/12/09 09:50:53;;;;;;;19.43;12.03;;;;;;;3.53;100.00;98028.03;4965345;28;20199;-79
2022/12/09 09:53:26;;;;;;;19.00;11.67;;;;;;;3.66;100.00;98025.56;4961954;28;20227;-79
2022/12/09 09:55:58;;;;;;;18.07;11.43;;;;;;;3.62;100.00;98014.44;4941802;28;20239;-79
2022/12/09 09:58:37;;;;;;;19.73;12.03;;;;;;;3.66;100.00;98018.56;4964938;28;20719;-79
2022/12/09 10:01:08;;;;;;;18.23;11.53;;;;;;;3.62;100.00;98003.97;5006367;28;20200;-79
2022/12/09 10:03:53;;;;;;;15.10;10.57;;;;;;;3.84;100.00;98008.84;5072529;28;20647;-79
2022/12/09 10:06:32;;;;;;;14.50;10.50;;;;;;;3.78;100.00;98003.13;5055855;28;20665;-79
2022/12/09 10:09:04;;;;;;;17.20;10.83;;;;;;;3.69;100.00;98002.72;5090265;28;20225;-79
2022/12/09 10:11:40;;;;;;;15.07;10.57;;;;;;;3.59;100.00;97996.28;5090181;28;20224;-79
2022/12/09 10:14:16;;;;;;;17.23;10.70;;;;;;;3.55;100.00;97993.91;5098197;27;20203;-79
2022/12/09 10:16:56;;;;;;;13.87;10.47;;;;;;;3.57;100.00;97995.53;5032779;28;20197;-79
2022/12/09 10:19:31;;;;;;;17.10;10.47;;;;;;;3.59;100.00;97993.69;5031070;28;20198;-81
2022/12/09 10:22:11;;;;;;;19.33;11.77;;;;;;;3.89;100.00;97983.28;5025418;28;20232;-79
2022/12/09 10:24:48;;;;;;;18.83;10.53;;;;;;;4.10;100.00;97985.63;5028682;28;20194;-80
2022/12/09 10:27:27;;;;;;;17.17;11.47;;;;;;;3.98;100.00;97979.28;5029902;28;20219;-79
2022/12/09 10:30:00;;;;;;;15.97;10.93;;;;;;;4.26;100.00;97982.03;5027823;28;20205;-79
2022/12/09 10:32:31;;;;;;;16.63;11.03;;;;;;;4.39;100.00;97971.69;5032415;28;20208;-79
2022/12/09 10:35:12;;;;;;;16.23;11.27;;;;;;;4.50;100.00;97971.06;5030188;28;20222;-79
2022/12/09 10:37:43;;;;;;;14.40;10.53;;;;;;;4.49;100.00;97964.13;5028774;28;20202;-79
2022/12/09 10:40:22;;;;;;;14.93;10.20;;;;;;;4.53;100.00;97968.25;5030037;28;20779;-79
2022/12/09 10:45:48;;;;;;;14.77;9.63;;;;;;;4.14;100.00;97959.13;5107993;28;20218;-79
2022/12/09 10:48:41;;;;;;;16.13;10.57;;;;;;;3.93;100.00;97965.59;5115117;28;20217;-79
2022/12/09 10:51:16;;;;;;;17.67;11.00;;;;;;;3.97;100.00;97970.59;5113592;28;20217;-79
2022/12/09 10:53:48;;;;;;;14.60;9.70;;;;;;;3.79;100.00;97966.38;5114715;27;20193;-79
2022/12/09 10:56:21;;;;;;;18.03;12.30;;;;;;;3.44;100.00;97971.78;5111926;28;20275;-79
2022/12/09 10:58:50;;;;;;;13.13;9.67;;;;;;;3.49;100.00;97968.09;5113419;28;20226;-79
2022/12/09 11:01:20;;;;;;;15.07;11.37;;;;;;;3.07;100.00;97972.06;5118103;28;20239;-79
2022/12/09 11:03:52;;;;;;;15.73;11.43;;;;;;;2.92;100.00;97978.13;5117263;27;20221;-79
2022/12/09 11:06:28;;;;;;;18.03;12.20;;;;;;;2.81;100.00;97976.06;5115927;27;20195;-79
2022/12/09 11:09:00;;;;;;;16.77;11.23;;;;;;;2.57;100.00;97971.16;5114943;27;20238;-79
2022/12/09 11:11:44;;;;;;;18.77;12.40;;;;;;;2.39;100.00;97966.00;5115003;28;20191;-79
2022/12/09 11:14:25;;;;;;;43.47;27.67;;;;;;;2.48;100.00;97969.00;5080046;28;20959;-79
2022/12/09 11:16:57;;;;;;;28.37;17.57;;;;;;;2.78;100.00;97974.44;5112555;28;20206;-79
2022/12/09 11:19:39;;;;;;;34.87;22.23;;;;;;;2.77;100.00;97977.13;5109295;28;20190;-78
2022/12/09 11:22:37;;;;;;;30.50;18.50;;;;;;;2.78;100.00;97965.72;5107903;28;20222;-79
2022/12/09 11:25:25;;;;;;;27.47;18.67;;;;;;;2.73;100.00;97960.75;5111003;28;20230;-79
2022/12/09 11:27:58;;;;;;;27.93;18.73;;;;;;;2.71;100.00;97965.22;5110230;28;20330;-79
2022/12/09 11:30:35;;;;;;;21.27;15.23;;;;;;;2.71;100.00;97959.16;5112267;28;20277;-78
2022/12/09 11:33:20;;;;;;;20.70;12.57;;;;;;;3.02;100.00;97969.69;5108316;28;20194;-79
2022/12/09 11:35:59;;;;;;;19.67;12.67;;;;;;;2.96;100.00;97962.16;5108905;28;20273;-79
2022/12/09 11:38:36;;;;;;;21.17;12.97;;;;;;;3.26;100.00;97959.69;5113509;27;20281;-79
2022/12/09 11:42:12;;;;;;;20.33;13.40;;;;;;;3.23;100.00;97961.63;5112475;28;20183;-79
2022/12/09 11:44:26;;;;;;;18.47;11.63;;;;;;;3.30;100.00;97960.38;5111751;28;20203;-79